createdAt,value
2018-08-03T00:01:32.009Z,16.38
2018-08-03T00:04:00.695Z,16.37
2018-08-03T00:06:29.390Z,16.36
2018-08-03T00:08:58.087Z,16.24
2018-08-03T00:11:26.752Z,16.07
2018-08-03T00:13:55.403Z,15.99
2018-08-03T00:16:24.036Z,15.94
2018-08-03T00:18:53.047Z,15.95
2018-08-03T00:21:21.705Z,15.95
2018-08-03T00:23:50.388Z,15.90
2018-08-03T00:26:19.028Z,15.83
2018-08-03T00:28:47.684Z,15.85
2018-08-03T00:31:16.308Z,15.87
2018-08-03T00:33:44.986Z,15.89
2018-08-03T00:36:13.635Z,15.87
2018-08-03T00:38:42.318Z,15.80
2018-08-03T00:41:10.993Z,15.75
2018-08-03T00:43:39.628Z,15.70
2018-08-03T00:46:08.291Z,15.66
2018-08-03T00:48:36.936Z,15.67
2018-08-03T00:51:05.618Z,15.64
2018-08-03T00:53:34.239Z,15.53
2018-08-03T00:56:02.891Z,15.44
2018-08-03T00:58:31.535Z,15.43
2018-08-03T01:01:00.203Z,15.47
2018-08-03T01:03:28.849Z,15.59
2018-08-03T01:05:57.501Z,15.64
2018-08-03T01:08:27.043Z,15.71
2018-08-03T01:10:55.727Z,15.72
2018-08-03T01:13:24.394Z,15.71
2018-08-03T01:15:53.051Z,15.68
2018-08-03T01:18:21.692Z,15.60
2018-08-03T01:20:50.358Z,15.52
2018-08-03T01:23:18.999Z,15.43
2018-08-03T01:25:47.745Z,15.43
2018-08-03T01:28:16.634Z,15.40
2018-08-03T01:30:45.296Z,15.38
2018-08-03T01:33:13.915Z,15.28
2018-08-03T01:35:42.575Z,15.16
2018-08-03T01:38:11.203Z,15.07
2018-08-03T01:40:39.865Z,15.07
2018-08-03T01:43:08.505Z,15.06
2018-08-03T01:45:37.152Z,15.09
2018-08-03T01:48:05.795Z,15.10
2018-08-03T01:50:34.469Z,15.14
2018-08-03T01:53:03.099Z,15.16
2018-08-03T01:55:31.810Z,15.11
2018-08-03T01:58:00.440Z,15.07
2018-08-03T02:00:29.119Z,15.09
2018-08-03T02:02:57.770Z,15.13
2018-08-03T02:05:26.447Z,15.13
2018-08-03T02:07:55.070Z,15.12
2018-08-03T02:10:23.735Z,15.11
2018-08-03T02:12:52.411Z,15.07
2018-08-03T02:15:21.080Z,15.01
2018-08-03T02:17:49.747Z,14.99
2018-08-03T02:20:18.397Z,14.99
2018-08-03T02:22:47.036Z,14.96
2018-08-03T02:25:15.699Z,14.97
2018-08-03T02:27:44.374Z,14.90
2018-08-03T02:30:13.048Z,14.87
2018-08-03T02:32:41.691Z,14.88
2018-08-03T02:35:10.376Z,14.89
2018-08-03T02:37:39.036Z,14.88
2018-08-03T02:40:07.735Z,14.75
2018-08-03T02:42:36.404Z,14.62
2018-08-03T02:45:05.479Z,14.60
2018-08-03T02:47:34.139Z,14.61
2018-08-03T02:50:02.796Z,14.67
2018-08-03T02:52:31.495Z,14.71
2018-08-03T02:55:00.143Z,14.66
2018-08-03T02:57:28.827Z,14.57
2018-08-03T02:59:57.472Z,14.53
2018-08-03T03:02:26.159Z,14.48
2018-08-03T03:04:54.824Z,14.52
2018-08-03T03:07:23.594Z,14.57
2018-08-03T03:09:52.224Z,14.55
2018-08-03T03:12:20.904Z,14.58
2018-08-03T03:14:49.554Z,14.61
2018-08-03T03:17:18.214Z,14.60
2018-08-03T03:19:46.882Z,14.57
2018-08-03T03:22:15.570Z,14.43
2018-08-03T03:24:44.205Z,14.35
2018-08-03T03:27:12.867Z,14.29
2018-08-03T03:29:41.501Z,14.28
2018-08-03T03:32:10.264Z,14.30
2018-08-03T03:34:38.920Z,14.31
2018-08-03T03:37:07.615Z,14.28
2018-08-03T03:39:36.252Z,14.27
2018-08-03T03:42:04.937Z,14.31
2018-08-03T03:44:33.574Z,14.36
2018-08-03T03:47:02.274Z,14.37
2018-08-03T03:49:30.906Z,14.39
2018-08-03T03:51:59.551Z,14.37
2018-08-03T03:54:28.186Z,14.37
2018-08-03T03:56:56.860Z,14.38
2018-08-03T03:59:25.490Z,14.36
2018-08-03T04:01:54.157Z,14.34
2018-08-03T04:04:22.783Z,14.35
2018-08-03T04:06:51.449Z,14.39
2018-08-03T04:09:20.086Z,14.45
2018-08-03T04:11:48.741Z,14.52
2018-08-03T04:14:17.380Z,14.56
2018-08-03T04:16:46.043Z,14.61
2018-08-03T04:19:14.685Z,14.68
2018-08-03T04:21:43.346Z,14.73
2018-08-03T04:24:12.018Z,14.77
2018-08-03T04:26:40.689Z,14.79
2018-08-03T04:29:09.323Z,14.81
2018-08-03T04:31:37.978Z,14.84
2018-08-03T04:34:06.614Z,14.89
2018-08-03T04:36:35.262Z,14.97
2018-08-03T04:39:04.324Z,15.05
2018-08-03T04:41:32.996Z,15.14
2018-08-03T04:44:01.643Z,15.25
2018-08-03T04:46:30.342Z,15.35
2018-08-03T04:48:58.982Z,15.47
2018-08-03T04:51:27.638Z,15.59
2018-08-03T04:53:56.312Z,15.74
2018-08-03T04:56:24.959Z,15.86
2018-08-03T04:58:53.628Z,15.98
2018-08-03T05:01:22.271Z,16.10
2018-08-03T05:03:50.923Z,16.17
2018-08-03T05:06:19.560Z,16.23
2018-08-03T05:08:48.211Z,16.30
2018-08-03T05:11:16.876Z,16.50
2018-08-03T05:13:45.549Z,16.97
2018-08-03T05:16:14.204Z,17.35
2018-08-03T05:18:42.864Z,17.58
2018-08-03T05:21:11.508Z,18.03
2018-08-03T05:23:40.163Z,19.24
2018-08-03T05:26:08.813Z,20.74
2018-08-03T05:28:37.494Z,21.80
2018-08-03T05:31:06.159Z,22.10
2018-08-03T05:33:34.831Z,21.68
2018-08-03T05:36:03.597Z,21.11
2018-08-03T05:38:32.228Z,21.28
2018-08-03T05:41:00.874Z,21.70
2018-08-03T05:43:29.531Z,21.81
2018-08-03T05:45:58.156Z,21.62
2018-08-03T05:48:26.823Z,21.23
2018-08-03T05:50:55.464Z,20.86
2018-08-03T05:53:24.151Z,20.63
2018-08-03T05:55:52.800Z,20.43
2018-08-03T05:58:21.465Z,20.42
2018-08-03T06:00:50.137Z,20.40
2018-08-03T06:03:19.080Z,20.45
2018-08-03T06:05:47.720Z,20.54
2018-08-03T06:08:16.434Z,20.60
2018-08-03T06:10:45.112Z,20.75
2018-08-03T06:13:13.800Z,20.86
2018-08-03T06:15:42.455Z,21.01
2018-08-03T06:18:11.152Z,21.12
2018-08-03T06:20:39.886Z,21.41
2018-08-03T06:23:08.572Z,21.77
2018-08-03T06:25:37.214Z,21.97
2018-08-03T06:28:06.255Z,21.99
2018-08-03T06:30:34.902Z,22.10
2018-08-03T06:33:03.571Z,22.14
2018-08-03T06:35:32.202Z,22.27
2018-08-03T06:38:00.878Z,22.40
2018-08-03T06:40:29.580Z,22.48
2018-08-03T06:42:58.271Z,22.56
2018-08-03T06:45:26.925Z,22.74
2018-08-03T06:47:55.588Z,22.90
2018-08-03T06:50:24.203Z,23.04
2018-08-03T06:52:52.860Z,23.23
2018-08-03T06:55:21.516Z,23.41
2018-08-03T06:57:50.182Z,23.67
2018-08-03T07:00:18.847Z,23.77
2018-08-03T07:02:48.015Z,23.97
2018-08-03T07:05:17.029Z,24.04
2018-08-03T07:07:45.660Z,24.12
2018-08-03T07:10:14.349Z,24.28
2018-08-03T07:12:43.012Z,24.48
2018-08-03T07:15:11.711Z,24.68
2018-08-03T07:17:40.348Z,24.90
2018-08-03T07:20:09.041Z,25.04
2018-08-03T07:22:37.671Z,25.20
2018-08-03T07:25:06.755Z,25.33
2018-08-03T07:27:35.409Z,25.42
2018-08-03T07:30:04.166Z,25.50
2018-08-03T07:32:32.795Z,25.48
2018-08-03T07:35:01.440Z,25.73
2018-08-03T07:37:30.077Z,26.01
2018-08-03T07:39:58.744Z,26.26
2018-08-03T07:42:27.434Z,26.51
2018-08-03T07:44:56.123Z,26.59
2018-08-03T07:47:24.751Z,26.75
2018-08-03T07:49:53.418Z,26.86
2018-08-03T07:52:22.057Z,27.05
2018-08-03T07:54:50.731Z,27.11
2018-08-03T07:57:19.366Z,27.19
2018-08-03T07:59:48.008Z,27.34
2018-08-03T08:02:16.627Z,27.50
2018-08-03T08:04:45.281Z,27.68
2018-08-03T08:07:13.972Z,27.46
2018-08-03T08:09:42.681Z,27.55
2018-08-03T08:12:11.319Z,27.61
2018-08-03T08:14:40.009Z,27.70
2018-08-03T08:17:08.631Z,27.77
2018-08-03T08:19:37.391Z,28.04
2018-08-03T08:22:06.039Z,27.99
2018-08-03T08:24:34.683Z,27.93
2018-08-03T08:27:03.328Z,28.14
2018-08-03T08:29:31.992Z,28.41
2018-08-03T08:32:00.630Z,28.39
2018-08-03T08:34:29.303Z,28.51
2018-08-03T08:36:57.985Z,28.67
2018-08-03T08:39:26.659Z,28.63
2018-08-03T08:41:55.298Z,28.72
2018-08-03T08:44:23.973Z,28.88
2018-08-03T08:46:52.595Z,28.80
2018-08-03T08:49:21.264Z,28.97
2018-08-03T08:51:49.916Z,28.94
2018-08-03T08:54:18.607Z,28.89
2018-08-03T08:56:47.223Z,28.88
2018-08-03T08:59:15.895Z,29.12
2018-08-03T09:01:44.538Z,29.21
2018-08-03T09:04:13.176Z,29.37
2018-08-03T09:06:41.822Z,29.56
2018-08-03T09:09:11.633Z,29.71
2018-08-03T09:11:40.805Z,29.84
2018-08-03T09:14:09.477Z,29.90
2018-08-03T09:16:38.388Z,29.79
2018-08-03T09:19:07.029Z,29.71
2018-08-03T09:21:35.704Z,29.94
2018-08-03T09:24:04.396Z,30.19
2018-08-03T09:26:33.101Z,30.30
2018-08-03T09:29:01.743Z,30.41
2018-08-03T09:31:30.405Z,30.57
2018-08-03T09:33:59.082Z,30.67
2018-08-03T09:36:27.743Z,30.84
2018-08-03T09:38:56.411Z,30.97
2018-08-03T09:41:25.062Z,30.94
2018-08-03T09:43:53.682Z,30.86
2018-08-03T09:46:22.368Z,30.77
2018-08-03T09:48:50.991Z,30.76
2018-08-03T09:51:19.658Z,30.91
2018-08-03T09:53:48.304Z,31.09
2018-08-03T09:56:16.980Z,31.07
2018-08-03T09:58:45.635Z,31.05
2018-08-03T10:01:14.334Z,31.14
2018-08-03T10:03:43.580Z,31.17
2018-08-03T10:06:13.227Z,31.13
2018-08-03T10:08:41.875Z,31.27
2018-08-03T10:11:10.923Z,31.45
2018-08-03T10:13:39.619Z,31.40
2018-08-03T10:16:08.307Z,31.32
2018-08-03T10:18:36.945Z,31.29
2018-08-03T10:21:05.608Z,31.52
2018-08-03T10:23:34.249Z,31.76
2018-08-03T10:26:02.983Z,31.76
2018-08-03T10:28:31.615Z,31.58
2018-08-03T10:31:00.288Z,31.76
2018-08-03T10:33:28.914Z,31.81
2018-08-03T10:35:57.559Z,31.83
2018-08-03T10:38:26.183Z,31.94
2018-08-03T10:40:54.885Z,32.13
2018-08-03T10:43:23.577Z,32.43
2018-08-03T10:45:52.240Z,32.65
2018-08-03T10:48:20.882Z,32.78
2018-08-03T10:50:49.530Z,32.61
2018-08-03T10:53:18.165Z,32.75
2018-08-03T10:55:46.837Z,32.79
2018-08-03T10:58:15.496Z,32.61
2018-08-03T11:00:44.201Z,32.47
2018-08-03T11:03:12.851Z,32.43
2018-08-03T11:05:41.500Z,32.69
2018-08-03T11:08:10.159Z,32.71
2018-08-03T11:10:38.832Z,32.62
2018-08-03T11:13:07.560Z,32.33
2018-08-03T11:15:36.242Z,31.82
2018-08-03T11:18:04.931Z,31.98
2018-08-03T11:20:33.587Z,32.21
2018-08-03T11:23:02.278Z,32.15
2018-08-03T11:25:30.950Z,32.21
2018-08-03T11:27:59.611Z,32.40
2018-08-03T11:30:28.308Z,32.56
2018-08-03T11:32:56.963Z,32.72
2018-08-03T11:35:25.640Z,32.82
2018-08-03T11:37:54.335Z,33.04
2018-08-03T11:40:22.983Z,32.98
2018-08-03T11:42:51.668Z,32.83
2018-08-03T11:45:20.336Z,32.62
2018-08-03T11:47:49.820Z,32.62
2018-08-03T11:50:18.477Z,32.72
2018-08-03T11:52:47.135Z,32.60
2018-08-03T11:55:15.790Z,32.05
2018-08-03T11:57:44.467Z,32.22
2018-08-03T12:00:13.442Z,32.50
2018-08-03T12:02:42.136Z,32.76
2018-08-03T12:05:10.817Z,32.94
2018-08-03T12:07:39.496Z,33.02
2018-08-03T12:10:08.148Z,33.13
2018-08-03T12:12:36.904Z,33.09
2018-08-03T12:15:05.594Z,32.68
2018-08-03T12:17:34.275Z,31.89
2018-08-03T12:20:02.935Z,31.25
2018-08-03T12:22:31.605Z,30.84
2018-08-03T12:25:00.279Z,30.83
2018-08-03T12:27:28.958Z,31.33
2018-08-03T12:29:57.619Z,32.05
2018-08-03T12:32:26.387Z,32.26
2018-08-03T12:34:55.055Z,32.74
2018-08-03T12:37:23.808Z,32.90
2018-08-03T12:39:52.481Z,33.06
2018-08-03T12:42:21.173Z,32.98
2018-08-03T12:44:49.843Z,33.13
2018-08-03T12:47:18.494Z,33.43
2018-08-03T12:49:47.141Z,33.66
2018-08-03T12:52:15.831Z,33.69
2018-08-03T12:54:44.466Z,33.87
2018-08-03T12:57:13.155Z,33.96
2018-08-03T12:59:41.897Z,33.96
2018-08-03T13:02:10.533Z,33.55
2018-08-03T13:04:39.239Z,33.52
2018-08-03T13:07:08.495Z,33.69
2018-08-03T13:09:37.141Z,33.59
2018-08-03T13:12:05.828Z,33.75
2018-08-03T13:14:34.581Z,33.67
2018-08-03T13:17:03.250Z,33.72
2018-08-03T13:19:31.908Z,33.86
2018-08-03T13:22:00.577Z,34.04
2018-08-03T13:24:29.218Z,34.22
2018-08-03T13:26:57.867Z,34.08
2018-08-03T13:29:26.551Z,34.07
2018-08-03T13:31:55.239Z,34.17
2018-08-03T13:34:23.931Z,34.36
2018-08-03T13:36:52.592Z,34.48
2018-08-03T13:39:21.252Z,34.43
2018-08-03T13:41:49.884Z,34.51
2018-08-03T13:44:18.585Z,34.08
2018-08-03T13:46:47.243Z,34.12
2018-08-03T13:49:15.932Z,34.01
2018-08-03T13:51:44.579Z,34.13
2018-08-03T13:54:13.234Z,34.26
2018-08-03T13:56:41.867Z,34.32
2018-08-03T13:59:10.517Z,34.38
2018-08-03T14:02:44.784Z,34.39
2018-08-03T14:05:13.673Z,34.35
2018-08-03T14:07:42.367Z,34.27
2018-08-03T14:10:11.218Z,34.32
2018-08-03T14:12:39.992Z,34.38
2018-08-03T14:15:08.795Z,34.36
2018-08-03T14:17:37.468Z,34.37
2018-08-03T14:20:07.477Z,34.18
2018-08-03T14:22:36.179Z,34.26
2018-08-03T14:25:04.903Z,34.42
2018-08-03T14:27:33.538Z,34.49
2018-08-03T14:30:02.249Z,34.42
2018-08-03T14:32:30.917Z,34.16
2018-08-03T14:34:59.608Z,34.00
2018-08-03T14:37:28.249Z,33.85
2018-08-03T14:39:56.923Z,33.82
2018-08-03T14:42:25.610Z,33.83
2018-08-03T14:44:54.283Z,33.73
2018-08-03T14:47:22.963Z,33.93
2018-08-03T14:49:51.671Z,33.76
2018-08-03T14:52:20.340Z,33.54
2018-08-03T14:54:48.998Z,33.53
2018-08-03T14:57:17.663Z,33.77
2018-08-03T14:59:46.365Z,33.72
2018-08-03T15:02:15.020Z,33.67
2018-08-03T15:04:43.705Z,33.75
2018-08-03T15:07:12.362Z,33.84
2018-08-03T15:09:41.030Z,33.91
2018-08-03T15:12:09.706Z,33.73
2018-08-03T15:14:38.374Z,33.62
2018-08-03T15:17:07.392Z,33.71
2018-08-03T15:19:36.063Z,33.80
2018-08-03T15:22:04.744Z,33.82
2018-08-03T15:24:33.406Z,33.45
2018-08-03T15:27:02.056Z,33.06
2018-08-03T15:29:30.739Z,32.67
2018-08-03T15:31:59.418Z,32.37
2018-08-03T15:34:28.074Z,32.21
2018-08-03T15:36:56.779Z,32.34
2018-08-03T15:39:25.451Z,32.38
2018-08-03T15:41:54.092Z,32.58
2018-08-03T15:44:22.767Z,32.81
2018-08-03T15:46:51.413Z,33.05
2018-08-03T15:49:20.114Z,33.19
2018-08-03T15:51:48.782Z,33.33
2018-08-03T15:54:17.459Z,33.41
2018-08-03T15:56:46.111Z,33.37
2018-08-03T15:59:14.786Z,33.34
2018-08-03T16:01:43.466Z,33.29
2018-08-03T16:04:12.128Z,33.22
2018-08-03T16:06:40.831Z,33.19
2018-08-03T16:09:10.616Z,32.83
2018-08-03T16:11:39.809Z,32.63
2018-08-03T16:14:08.550Z,32.70
2018-08-03T16:16:37.230Z,32.83
2018-08-03T16:19:05.956Z,32.89
2018-08-03T16:21:34.934Z,32.93
2018-08-03T16:24:04.199Z,32.93
2018-08-03T16:26:32.900Z,32.93
2018-08-03T16:29:01.601Z,32.91
2018-08-03T16:31:30.446Z,32.80
2018-08-03T16:33:59.095Z,32.71
2018-08-03T16:36:27.764Z,32.75
2018-08-03T16:38:56.440Z,32.76
2018-08-03T16:41:25.157Z,32.82
2018-08-03T16:43:53.817Z,32.87
2018-08-03T16:46:22.513Z,32.94
2018-08-03T16:48:51.211Z,32.97
2018-08-03T16:51:19.933Z,32.95
2018-08-03T16:53:48.606Z,32.91
2018-08-03T16:56:17.293Z,32.85
2018-08-03T16:58:45.947Z,32.83
2018-08-03T17:01:14.654Z,32.74
2018-08-03T17:03:43.289Z,32.72
2018-08-03T17:06:18.627Z,32.75
2018-08-03T17:08:47.279Z,32.74
2018-08-03T17:11:15.957Z,32.69
2018-08-03T17:13:44.604Z,32.58
2018-08-03T17:16:13.265Z,32.48
2018-08-03T17:18:41.931Z,32.43
2018-08-03T17:21:10.847Z,32.38
2018-08-03T17:23:39.499Z,32.35
2018-08-03T17:26:08.206Z,32.32
2018-08-03T17:28:36.826Z,32.30
2018-08-03T17:31:05.502Z,32.16
2018-08-03T17:33:34.126Z,32.00
2018-08-03T17:36:02.784Z,31.90
2018-08-03T17:38:31.437Z,31.79
2018-08-03T17:41:00.100Z,31.68
2018-08-03T17:43:28.764Z,31.55
2018-08-03T17:45:57.435Z,31.45
2018-08-03T17:48:26.063Z,31.31
2018-08-03T17:50:54.811Z,31.18
2018-08-03T17:53:23.444Z,31.03
2018-08-03T17:55:52.103Z,30.83
2018-08-03T17:58:20.752Z,30.81
2018-08-03T18:00:49.469Z,31.34
2018-08-03T18:03:18.094Z,32.13
2018-08-03T18:05:46.747Z,32.44
2018-08-03T18:08:15.368Z,32.76
2018-08-03T18:10:44.028Z,32.81
2018-08-03T18:13:12.686Z,32.57
2018-08-03T18:15:41.443Z,32.45
2018-08-03T18:18:10.088Z,32.22
2018-08-03T18:20:38.776Z,32.07
2018-08-03T18:23:07.451Z,32.00
2018-08-03T18:25:36.128Z,31.49
2018-08-03T18:28:04.824Z,31.14
2018-08-03T18:30:33.532Z,30.90
2018-08-03T18:33:02.179Z,30.52
2018-08-03T18:35:30.835Z,30.10
2018-08-03T18:37:59.485Z,29.91
2018-08-03T18:40:28.190Z,29.66
2018-08-03T18:42:56.828Z,29.46
2018-08-03T18:45:25.519Z,29.24
2018-08-03T18:47:54.173Z,29.00
2018-08-03T18:50:22.815Z,28.70
2018-08-03T18:52:51.722Z,28.34
2018-08-03T18:55:20.376Z,28.05
2018-08-03T18:57:49.034Z,27.80
2018-08-03T19:00:17.687Z,27.54
2018-08-03T19:02:46.350Z,27.31
2018-08-03T19:05:15.025Z,27.07
2018-08-03T19:07:43.707Z,26.90
2018-08-03T19:10:12.409Z,26.76
2018-08-03T19:12:41.107Z,26.62
2018-08-03T19:15:10.244Z,26.52
2018-08-03T19:17:39.011Z,26.40
2018-08-03T19:20:08.463Z,26.32
2018-08-03T19:22:37.398Z,26.18
2018-08-03T19:25:06.410Z,26.06
2018-08-03T19:27:35.090Z,25.92
2018-08-03T19:30:03.774Z,25.80
2018-08-03T19:32:32.435Z,25.68
2018-08-03T19:35:01.084Z,25.58
2018-08-03T19:37:29.807Z,25.51
2018-08-03T19:39:58.508Z,25.43
2018-08-03T19:42:27.163Z,25.37
2018-08-03T19:44:55.826Z,25.34
2018-08-03T19:47:24.480Z,25.30
2018-08-03T19:49:53.128Z,25.24
2018-08-03T19:52:21.780Z,25.21
2018-08-03T19:54:50.500Z,25.14
2018-08-03T19:57:19.174Z,25.02
2018-08-03T19:59:47.829Z,24.96
2018-08-03T20:02:16.565Z,24.84
2018-08-03T20:04:45.219Z,24.69
2018-08-03T20:07:13.889Z,24.59
2018-08-03T20:09:42.535Z,24.50
2018-08-03T20:12:11.230Z,24.40
2018-08-03T20:14:39.884Z,24.30
2018-08-03T20:17:08.595Z,24.26
2018-08-03T20:19:37.243Z,24.23
2018-08-03T20:22:11.619Z,24.20
2018-08-03T20:24:40.340Z,24.12
2018-08-03T20:27:09.020Z,24.05
2018-08-03T20:29:37.673Z,24.00
2018-08-03T20:32:06.399Z,23.95
2018-08-03T20:34:35.041Z,23.89
2018-08-03T20:37:03.724Z,23.76
2018-08-03T20:39:32.375Z,23.61
2018-08-03T20:42:01.044Z,23.45
2018-08-03T20:44:30.128Z,23.31
2018-08-03T20:46:58.784Z,23.21
2018-08-03T20:49:27.416Z,23.17
2018-08-03T20:51:56.141Z,23.15
2018-08-03T20:54:24.822Z,23.06
2018-08-03T20:56:53.502Z,22.88
2018-08-03T20:59:22.135Z,22.65
2018-08-03T21:01:50.852Z,22.47
2018-08-03T21:04:19.537Z,22.33
2018-08-03T21:06:48.263Z,22.26
2018-08-03T21:09:16.919Z,22.21
2018-08-03T21:11:45.581Z,22.21
2018-08-03T21:14:14.254Z,22.23
2018-08-03T21:16:42.914Z,22.20
2018-08-03T21:19:18.069Z,22.10
2018-08-03T21:21:46.729Z,21.95
2018-08-03T21:24:15.391Z,21.87
2018-08-03T21:26:44.032Z,21.86
2018-08-03T21:29:12.700Z,21.84
2018-08-03T21:31:41.397Z,21.75
2018-08-03T21:34:10.060Z,21.53
2018-08-03T21:36:38.769Z,21.37
2018-08-03T21:39:09.607Z,21.24
2018-08-03T21:41:38.262Z,21.16
2018-08-03T21:44:06.954Z,21.22
2018-08-03T21:46:35.627Z,21.29
2018-08-03T21:49:04.439Z,21.34
2018-08-03T21:51:33.704Z,21.33
2018-08-03T21:54:02.388Z,21.28
2018-08-03T21:56:31.059Z,21.08
2018-08-03T21:58:59.730Z,20.99
2018-08-03T22:01:28.392Z,20.96
2018-08-03T22:03:57.051Z,20.95
2018-08-03T22:06:25.708Z,20.85
2018-08-03T22:08:54.381Z,20.80
2018-08-03T22:11:23.032Z,20.79
2018-08-03T22:13:51.691Z,20.77
2018-08-03T22:16:20.394Z,20.74
2018-08-03T22:18:49.111Z,20.68
2018-08-03T22:21:17.727Z,20.65
2018-08-03T22:23:46.395Z,20.64
2018-08-03T22:26:15.046Z,20.53
2018-08-03T22:28:43.714Z,20.31
2018-08-03T22:31:12.383Z,20.16
2018-08-03T22:33:41.039Z,20.09
2018-08-03T22:36:09.683Z,20.02
2018-08-03T22:38:38.381Z,20.03
2018-08-03T22:41:07.054Z,19.99
2018-08-03T22:43:35.712Z,19.92
2018-08-03T22:46:04.396Z,19.85
2018-08-03T22:48:33.063Z,19.86
2018-08-03T22:51:01.717Z,19.81
2018-08-03T22:53:30.379Z,19.75
2018-08-03T22:55:59.025Z,19.65
2018-08-03T22:58:27.694Z,19.56
2018-08-03T23:00:56.397Z,19.56
2018-08-03T23:03:25.053Z,19.57
2018-08-03T23:05:53.787Z,19.57
2018-08-03T23:08:22.447Z,19.50
2018-08-03T23:10:51.114Z,19.45
2018-08-03T23:13:19.822Z,19.37
2018-08-03T23:15:48.471Z,19.35
2018-08-03T23:18:17.123Z,19.35
2018-08-03T23:20:45.806Z,19.36
2018-08-03T23:23:14.465Z,19.37
2018-08-03T23:25:43.138Z,19.42
2018-08-03T23:28:11.771Z,19.43
2018-08-03T23:30:40.452Z,19.48
2018-08-03T23:33:09.091Z,19.50
2018-08-03T23:35:37.818Z,19.46
2018-08-03T23:38:06.537Z,19.39
2018-08-03T23:40:35.224Z,19.37
2018-08-03T23:43:03.881Z,19.38
2018-08-03T23:45:32.577Z,19.38
2018-08-03T23:48:01.287Z,19.36
2018-08-03T23:50:29.988Z,19.35
2018-08-03T23:52:58.700Z,19.29
2018-08-03T23:55:27.390Z,19.22
2018-08-03T23:57:56.065Z,19.09
